createdAt,value
2024-01-25T00:02:13.545Z,10.05
2024-01-25T00:04:40.568Z,9.86
2024-01-25T00:07:09.943Z,9.79
2024-01-25T00:09:37.213Z,9.79
2024-01-25T00:12:04.394Z,9.60
2024-01-25T00:14:31.305Z,9.24
2024-01-25T00:16:58.183Z,9.46
2024-01-25T00:19:25.184Z,9.57
2024-01-25T00:21:52.310Z,9.59
2024-01-25T00:24:19.252Z,9.59
2024-01-25T00:26:46.132Z,9.57
2024-01-25T00:29:13.029Z,9.57
2024-01-25T00:31:39.884Z,9.52
2024-01-25T00:34:07.058Z,9.51
2024-01-25T00:36:34.416Z,9.46
2024-01-25T00:39:01.561Z,9.37
2024-01-25T00:41:31.623Z,9.42
2024-01-25T00:43:58.901Z,9.39
2024-01-25T00:46:26.178Z,9.22
2024-01-25T00:48:53.521Z,9.36
2024-01-25T00:51:23.261Z,9.38
2024-01-25T00:53:50.333Z,9.44
2024-01-25T00:56:17.935Z,9.37
2024-01-25T00:58:45.146Z,9.43
2024-01-25T01:01:12.439Z,9.45
2024-01-25T01:03:40.085Z,9.46
2024-01-25T01:06:07.828Z,9.48
2024-01-25T01:08:34.979Z,9.49
2024-01-25T01:11:01.932Z,9.52
2024-01-25T01:13:28.858Z,9.50
2024-01-25T01:15:55.892Z,9.49
2024-01-25T01:18:22.965Z,9.52
2024-01-25T01:20:49.919Z,9.52
2024-01-25T01:23:16.860Z,9.52
2024-01-25T01:25:43.768Z,9.51
2024-01-25T01:28:10.750Z,9.52
2024-01-25T01:30:37.687Z,9.47
2024-01-25T01:33:04.974Z,9.51
2024-01-25T01:35:31.976Z,9.50
2024-01-25T01:37:58.910Z,9.58
2024-01-25T01:40:25.840Z,9.52
2024-01-25T01:42:52.963Z,9.61
2024-01-25T01:45:19.843Z,9.54
2024-01-25T01:47:46.886Z,9.61
2024-01-25T01:50:14.670Z,9.62
2024-01-25T01:52:43.374Z,9.61
2024-01-25T01:55:10.539Z,9.59
2024-01-25T01:57:38.416Z,9.58
2024-01-25T02:00:09.829Z,9.62
2024-01-25T02:02:37.069Z,9.59
2024-01-25T02:05:04.082Z,9.48
2024-01-25T02:07:32.107Z,9.58
2024-01-25T02:09:59.122Z,9.64
2024-01-25T02:12:26.086Z,9.69
2024-01-25T02:14:52.939Z,9.64
2024-01-25T02:17:19.852Z,9.62
2024-01-25T02:19:46.888Z,9.62
2024-01-25T02:22:18.302Z,9.63
2024-01-25T02:24:46.361Z,9.61
2024-01-25T02:27:13.487Z,9.61
2024-01-25T02:29:40.485Z,9.53
2024-01-25T02:32:07.517Z,9.47
2024-01-25T02:34:34.463Z,9.52
2024-01-25T02:37:01.439Z,9.53
2024-01-25T02:39:28.356Z,9.60
2024-01-25T02:41:55.230Z,9.60
2024-01-25T02:44:22.133Z,9.58
2024-01-25T02:46:49.037Z,9.58
2024-01-25T02:49:16.455Z,9.65
2024-01-25T02:51:43.447Z,9.62
2024-01-25T02:54:10.367Z,9.57
2024-01-25T02:56:37.252Z,9.52
2024-01-25T02:59:04.148Z,9.53
2024-01-25T03:01:39.801Z,9.54
2024-01-25T03:04:07.023Z,9.56
2024-01-25T03:06:34.076Z,9.57
2024-01-25T03:09:01.147Z,9.54
2024-01-25T03:11:28.009Z,9.54
2024-01-25T03:13:54.912Z,9.56
2024-01-25T03:16:21.898Z,9.58
2024-01-25T03:18:48.840Z,9.58
2024-01-25T03:21:15.788Z,9.58
2024-01-25T03:23:42.660Z,9.56
2024-01-25T03:26:09.559Z,9.58
2024-01-25T03:28:36.476Z,9.59
2024-01-25T03:31:03.423Z,9.61
2024-01-25T03:33:30.489Z,9.62
2024-01-25T03:35:57.525Z,9.63
2024-01-25T03:38:24.417Z,9.62
2024-01-25T03:40:51.295Z,9.61
2024-01-25T03:43:20.868Z,9.64
2024-01-25T03:45:51.613Z,9.64
2024-01-25T03:48:18.958Z,9.64
2024-01-25T03:50:45.937Z,9.66
2024-01-25T03:53:12.807Z,9.48
2024-01-25T03:55:39.718Z,9.46
2024-01-25T03:58:06.604Z,9.54
2024-01-25T04:00:33.701Z,9.52
2024-01-25T04:03:00.748Z,9.64
2024-01-25T04:05:27.778Z,9.55
2024-01-25T04:07:54.833Z,9.62
2024-01-25T04:10:21.856Z,9.59
2024-01-25T04:12:48.917Z,9.61
2024-01-25T04:15:15.811Z,9.57
2024-01-25T04:17:42.787Z,9.53
2024-01-25T04:20:10.143Z,9.52
2024-01-25T04:22:37.942Z,9.50
2024-01-25T04:25:05.272Z,9.48
2024-01-25T04:27:32.197Z,9.46
2024-01-25T04:29:59.347Z,9.46
2024-01-25T04:32:26.268Z,9.47
2024-01-25T04:34:53.365Z,9.26
2024-01-25T04:37:20.421Z,9.32
2024-01-25T04:39:47.423Z,9.32
2024-01-25T04:42:14.399Z,9.31
2024-01-25T04:44:41.274Z,9.25
2024-01-25T04:47:08.151Z,9.24
2024-01-25T04:49:35.101Z,9.19
2024-01-25T04:52:02.058Z,9.12
2024-01-25T04:54:28.976Z,9.11
2024-01-25T04:56:55.863Z,8.98
2024-01-25T04:59:22.909Z,8.90
2024-01-25T05:01:49.902Z,8.89
2024-01-25T05:04:17.976Z,8.90
2024-01-25T05:06:44.986Z,8.89
2024-01-25T05:09:11.823Z,8.86
2024-01-25T05:11:41.896Z,8.80
2024-01-25T05:14:09.158Z,8.76
2024-01-25T05:16:36.105Z,8.80
2024-01-25T05:19:03.305Z,8.79
2024-01-25T05:21:30.391Z,8.74
2024-01-25T05:23:57.390Z,8.70
2024-01-25T05:26:24.518Z,8.70
2024-01-25T05:28:51.379Z,8.71
2024-01-25T05:31:18.510Z,8.66
2024-01-25T05:33:45.538Z,8.64
2024-01-25T05:36:12.471Z,8.62
2024-01-25T05:38:39.370Z,8.65
2024-01-25T05:41:06.219Z,8.63
2024-01-25T05:43:34.665Z,8.63
2024-01-25T05:46:04.662Z,8.64
2024-01-25T05:48:32.391Z,8.63
2024-01-25T05:50:59.399Z,8.65
2024-01-25T05:53:26.299Z,8.65
2024-01-25T05:55:53.185Z,8.63
2024-01-25T05:58:20.178Z,8.64
2024-01-25T06:00:47.254Z,8.65
2024-01-25T06:03:14.316Z,8.65
2024-01-25T06:05:41.385Z,8.68
2024-01-25T06:08:08.848Z,8.74
2024-01-25T06:10:35.927Z,8.78
2024-01-25T06:13:02.965Z,8.82
2024-01-25T06:15:33.703Z,8.81
2024-01-25T06:21:10.035Z,8.82
2024-01-25T06:26:37.793Z,8.86
2024-01-25T06:29:38.740Z,8.80
2024-01-25T06:32:46.100Z,8.79
2024-01-25T06:38:59.291Z,8.79
2024-01-25T06:45:58.527Z,8.76
2024-01-25T06:48:40.511Z,8.78
2024-01-25T07:05:35.690Z,8.74
2024-01-25T07:09:11.083Z,8.76
2024-01-25T07:21:41.813Z,8.73
2024-01-25T07:33:26.621Z,8.55
2024-01-25T07:45:13.495Z,8.62
2024-01-25T07:55:59.508Z,8.34
2024-01-25T08:00:48.664Z,8.78
2024-01-25T08:03:28.932Z,8.70
2024-01-25T08:06:15.269Z,8.95
2024-01-25T08:12:11.466Z,9.40
2024-01-25T08:15:42.343Z,9.44
2024-01-25T08:21:19.392Z,9.74
2024-01-25T08:30:45.358Z,10.08
2024-01-25T08:33:43.357Z,10.17
2024-01-25T08:36:44.809Z,10.30
2024-01-25T08:40:02.981Z,10.43
2024-01-25T08:42:27.783Z,10.38
2024-01-25T08:45:01.009Z,10.54
2024-01-25T08:48:02.595Z,10.52
2024-01-25T08:50:56.440Z,10.61
2024-01-25T09:00:22.795Z,10.35
2024-01-25T09:12:39.286Z,11.37
2024-01-25T09:42:40.719Z,13.22
